createdAt,value
2019-05-13T00:01:34.317Z,102731.31
2019-05-13T00:04:00.539Z,102725.37
2019-05-13T00:06:27.627Z,102724.30
2019-05-13T00:08:54.433Z,102724.77
2019-05-13T00:11:23.865Z,102717.02
2019-05-13T00:13:50.708Z,102721.33
2019-05-13T00:16:17.613Z,102714.64
2019-05-13T00:18:44.575Z,102718.11
2019-05-13T00:21:13.871Z,102720.92
2019-05-13T00:23:40.635Z,102717.76
2019-05-13T00:26:07.562Z,102716.86
2019-05-13T00:28:34.938Z,102721.52
2019-05-13T00:31:03.403Z,102724.14
2019-05-13T00:33:30.980Z,102721.98
2019-05-13T00:35:58.149Z,102725.02
2019-05-13T00:38:25.384Z,102723.45
2019-05-13T00:40:53.910Z,102726.97
2019-05-13T00:43:21.365Z,102721.28
2019-05-13T00:45:49.369Z,102718.11
2019-05-13T00:48:16.644Z,102719.61
2019-05-13T00:50:44.251Z,102719.48
2019-05-13T00:53:13.220Z,102716.99
2019-05-13T00:55:39.842Z,102716.91
2019-05-13T00:58:06.622Z,102719.88
2019-05-13T01:00:34.195Z,102717.27
2019-05-13T01:03:01.188Z,102718.66
2019-05-13T01:05:29.671Z,102719.39
2019-05-13T01:07:56.772Z,102719.18
2019-05-13T01:10:24.000Z,102722.04
2019-05-13T01:12:50.835Z,102719.66
2019-05-13T01:15:17.851Z,102718.77
2019-05-13T01:17:45.039Z,102719.52
2019-05-13T01:20:14.176Z,102716.45
2019-05-13T01:22:40.955Z,102722.16
2019-05-13T01:25:07.898Z,102721.09
2019-05-13T01:27:34.951Z,102714.24
2019-05-13T01:30:03.965Z,102711.33
2019-05-13T01:32:30.583Z,102714.16
2019-05-13T01:34:57.456Z,102720.44
2019-05-13T01:37:37.994Z,102719.09
2019-05-13T01:39:54.038Z,102714.16
2019-05-13T01:42:21.539Z,102721.14
2019-05-13T01:44:48.372Z,102725.42
2019-05-13T01:47:16.179Z,102720.59
2019-05-13T01:49:43.939Z,102726.69
2019-05-13T01:52:13.543Z,102726.33
2019-05-13T01:54:39.619Z,102727.50
2019-05-13T01:57:06.902Z,102723.98
2019-05-13T01:59:35.689Z,102727.75
2019-05-13T02:02:03.969Z,102724.98
2019-05-13T02:04:30.774Z,102724.69
2019-05-13T02:06:57.880Z,102728.56
2019-05-13T02:09:25.107Z,102729.81
2019-05-13T02:11:53.829Z,102724.87
2019-05-13T02:14:20.610Z,102734.45
2019-05-13T02:16:48.173Z,102734.45
2019-05-13T02:19:15.145Z,102734.66
2019-05-13T02:21:43.920Z,102731.98
2019-05-13T02:24:10.945Z,102739.73
2019-05-13T02:26:37.930Z,102747.09
2019-05-13T02:29:04.575Z,102754.22
2019-05-13T02:31:41.373Z,102751.31
2019-05-13T02:34:02.446Z,102748.48
2019-05-13T02:36:28.992Z,102749.95
2019-05-13T02:38:55.730Z,102751.29
2019-05-13T02:41:23.008Z,102764.45
2019-05-13T02:43:52.596Z,102759.80
2019-05-13T02:46:18.719Z,102759.28
2019-05-13T02:48:45.673Z,102757.59
2019-05-13T02:51:12.636Z,102758.78
2019-05-13T02:53:43.438Z,102753.00
2019-05-13T02:56:11.610Z,102761.39
2019-05-13T02:58:37.668Z,102763.55
2019-05-13T03:01:04.897Z,102756.39
2019-05-13T03:03:32.756Z,102768.55
2019-05-13T03:06:02.949Z,102768.71
2019-05-13T03:08:41.082Z,102773.77
2019-05-13T03:10:58.171Z,102776.48
2019-05-13T03:13:26.042Z,102773.84
2019-05-13T03:16:13.183Z,102770.77
2019-05-13T03:18:43.195Z,102771.86
2019-05-13T03:21:08.205Z,102763.27
2019-05-13T03:23:35.167Z,102765.48
2019-05-13T03:26:03.182Z,102770.17
2019-05-13T03:28:33.103Z,102769.66
2019-05-13T03:30:58.580Z,102763.41
2019-05-13T03:33:28.243Z,102774.49
2019-05-13T03:35:55.979Z,102764.84
2019-05-13T03:38:22.615Z,102762.57
2019-05-13T03:40:52.634Z,102762.23
2019-05-13T03:43:22.839Z,102763.14
2019-05-13T03:45:52.604Z,102763.69
2019-05-13T03:48:23.335Z,102770.78
2019-05-13T03:50:48.703Z,102769.81
2019-05-13T03:53:15.713Z,102779.29
2019-05-13T03:55:43.656Z,102778.58
2019-05-13T03:58:13.103Z,102779.72
2019-05-13T04:00:42.613Z,102788.80
2019-05-13T04:03:08.809Z,102792.28
2019-05-13T04:05:35.520Z,102792.89
2019-05-13T04:08:03.160Z,102795.72
2019-05-13T04:10:33.139Z,102793.15
2019-05-13T04:12:58.721Z,102792.09
2019-05-13T04:15:25.873Z,102793.15
2019-05-13T04:17:53.636Z,102800.97
2019-05-13T04:20:23.020Z,102798.25
2019-05-13T04:22:52.991Z,102800.95
2019-05-13T04:25:22.837Z,102806.90
2019-05-13T04:27:48.343Z,102802.13
2019-05-13T04:30:15.349Z,102811.48
2019-05-13T04:32:44.149Z,102803.33
2019-05-13T04:35:12.349Z,102803.19
2019-05-13T04:37:43.002Z,102804.34
2019-05-13T04:40:08.228Z,102801.53
2019-05-13T04:42:36.154Z,102801.67
2019-05-13T04:45:03.551Z,102803.84
2019-05-13T04:47:33.219Z,102804.55
2019-05-13T04:50:02.651Z,102801.36
2019-05-13T04:52:28.735Z,102800.92
2019-05-13T04:54:55.730Z,102809.16
2019-05-13T04:57:22.873Z,102805.92
2019-05-13T04:59:51.690Z,102797.70
2019-05-13T05:02:43.291Z,102800.15
2019-05-13T05:05:24.486Z,102800.17
2019-05-13T05:08:11.972Z,102801.39
2019-05-13T05:10:57.722Z,102798.59
2019-05-13T05:13:47.192Z,102798.91
2019-05-13T05:16:32.802Z,102788.68
2019-05-13T05:19:23.780Z,102795.72
2019-05-13T05:21:57.681Z,102796.92
2019-05-13T05:24:33.667Z,102790.17
2019-05-13T05:27:12.089Z,102791.76
2019-05-13T05:29:58.178Z,102790.33
2019-05-13T05:32:39.053Z,102793.44
2019-05-13T05:35:32.382Z,102796.54
2019-05-13T05:38:14.813Z,102804.41
2019-05-13T05:40:43.223Z,102810.53
2019-05-13T05:43:11.665Z,102810.98
2019-05-13T05:45:38.678Z,102823.13
2019-05-13T05:48:05.961Z,102827.05
2019-05-13T05:50:34.094Z,102819.57
2019-05-13T05:53:02.708Z,102823.67
2019-05-13T05:55:31.796Z,102820.77
2019-05-13T05:58:01.591Z,102826.09
2019-05-13T06:00:32.260Z,102824.09
2019-05-13T06:03:02.314Z,102825.36
2019-05-13T06:05:29.286Z,102824.94
2019-05-13T06:07:56.911Z,102819.72
2019-05-13T06:10:24.328Z,102835.23
2019-05-13T06:12:53.130Z,102828.41
2019-05-13T06:15:22.532Z,102828.72
2019-05-13T06:17:51.791Z,102828.48
2019-05-13T06:20:21.128Z,102830.93
2019-05-13T06:22:48.745Z,102834.39
2019-05-13T06:25:16.446Z,102834.17
2019-05-13T06:27:43.998Z,102834.73
2019-05-13T06:30:12.606Z,102838.62
2019-05-13T06:32:41.889Z,102839.13
2019-05-13T06:35:11.467Z,102839.59
2019-05-13T06:37:41.440Z,102836.61
2019-05-13T06:40:12.406Z,102840.23
2019-05-13T06:42:41.737Z,102851.61
2019-05-13T06:45:09.455Z,102843.27
2019-05-13T06:47:37.132Z,102848.08
2019-05-13T06:50:04.859Z,102855.41
2019-05-13T06:52:32.581Z,102854.05
2019-05-13T06:55:02.532Z,102857.78
2019-05-13T06:57:28.937Z,102859.99
2019-05-13T06:59:56.349Z,102862.52
2019-05-13T07:02:23.562Z,102869.64
2019-05-13T07:04:51.749Z,102874.77
2019-05-13T07:07:21.678Z,102869.77
2019-05-13T07:09:51.702Z,102869.46
2019-05-13T07:12:18.767Z,102868.07
2019-05-13T07:14:46.120Z,102859.77
2019-05-13T07:17:13.562Z,102855.43
2019-05-13T07:19:41.638Z,102858.33
2019-05-13T07:22:11.474Z,102860.29
2019-05-13T07:24:38.470Z,102862.77
2019-05-13T07:27:06.104Z,102855.80
2019-05-13T07:29:33.651Z,102857.86
2019-05-13T07:32:02.085Z,102858.25
2019-05-13T07:34:33.430Z,102860.09
2019-05-13T07:37:01.938Z,102860.44
2019-05-13T07:39:32.398Z,102853.56
2019-05-13T07:42:02.723Z,102855.11
2019-05-13T07:44:28.538Z,102852.56
2019-05-13T07:46:55.852Z,102844.91
2019-05-13T07:49:23.091Z,102848.97
2019-05-13T07:51:52.030Z,102848.84
2019-05-13T07:54:22.090Z,102854.89
2019-05-13T07:56:52.270Z,102854.84
2019-05-13T07:59:21.069Z,102862.95
2019-05-13T08:01:48.587Z,102859.29
2019-05-13T08:04:22.479Z,102859.20
2019-05-13T08:06:45.591Z,102858.44
2019-05-13T08:09:12.989Z,102861.09
2019-05-13T08:11:55.568Z,102865.36
2019-05-13T08:14:12.220Z,102866.52
2019-05-13T08:16:39.335Z,102868.38
2019-05-13T08:24:43.993Z,102872.78
2019-05-13T08:27:11.857Z,102879.86
2019-05-13T08:29:42.100Z,102875.75
2019-05-13T08:32:11.267Z,102878.48
2019-05-13T08:34:41.731Z,102885.19
2019-05-13T08:37:11.390Z,102887.56
2019-05-13T08:39:41.279Z,102878.84
2019-05-13T08:42:15.956Z,102883.48
2019-05-13T08:44:37.582Z,102890.56
2019-05-13T08:47:05.219Z,102893.30
2019-05-13T08:49:32.864Z,102888.76
2019-05-13T08:52:01.583Z,102888.89
2019-05-13T08:54:32.935Z,102888.59
2019-05-13T08:57:02.489Z,102884.55
2019-05-13T08:59:31.788Z,102881.52
2019-05-13T09:01:59.265Z,102880.28
2019-05-13T09:04:26.966Z,102885.62
2019-05-13T09:06:54.582Z,102889.75
2019-05-13T09:09:22.199Z,102884.55
2019-05-13T09:11:51.601Z,102878.55
2019-05-13T09:14:21.745Z,102884.27
2019-05-13T09:16:48.230Z,102879.19
2019-05-13T09:19:16.473Z,102888.52
2019-05-13T09:21:44.676Z,102890.03
2019-05-13T09:24:25.338Z,102882.53
2019-05-13T09:26:42.333Z,102890.77
2019-05-13T09:29:11.908Z,102885.88
2019-05-13T09:31:41.579Z,102882.73
2019-05-13T09:34:11.905Z,102884.56
2019-05-13T09:36:38.657Z,102889.24
2019-05-13T09:39:07.315Z,102888.44
2019-05-13T09:41:40.912Z,102878.56
2019-05-13T09:44:04.138Z,102882.89
2019-05-13T09:46:31.960Z,102885.61
2019-05-13T09:49:14.867Z,102883.73
2019-05-13T09:51:28.083Z,102886.68
2019-05-13T09:53:55.857Z,102880.49
2019-05-13T09:56:23.202Z,102876.00
2019-05-13T09:58:52.547Z,102886.47
2019-05-13T10:01:22.359Z,102885.87
2019-05-13T10:03:54.829Z,102883.20
2019-05-13T10:06:18.346Z,102882.73
2019-05-13T10:08:46.087Z,102877.60
2019-05-13T10:11:13.978Z,102877.08
2019-05-13T10:13:41.828Z,102877.39
2019-05-13T10:16:09.001Z,102877.70
2019-05-13T10:18:36.378Z,102876.41
2019-05-13T10:21:03.808Z,102871.73
2019-05-13T10:23:32.974Z,102872.14
2019-05-13T10:26:03.769Z,102878.78
2019-05-13T10:28:33.014Z,102881.05
2019-05-13T10:31:00.252Z,102882.23
2019-05-13T10:33:31.554Z,102877.13
2019-05-13T10:35:59.189Z,102876.83
2019-05-13T10:38:27.866Z,102871.78
2019-05-13T10:40:56.293Z,102872.44
2019-05-13T10:43:31.007Z,102873.41
2019-05-13T10:45:52.959Z,102871.98
2019-05-13T10:48:21.998Z,102865.38
2019-05-13T10:50:52.040Z,102862.25
2019-05-13T10:53:19.069Z,102861.47
2019-05-13T10:55:46.550Z,102858.41
2019-05-13T10:58:13.926Z,102860.56
2019-05-13T11:00:46.108Z,102854.23
2019-05-13T11:03:13.712Z,102848.09
2019-05-13T11:05:44.468Z,102846.63
2019-05-13T11:08:09.918Z,102847.42
2019-05-13T11:10:37.162Z,102853.03
2019-05-13T11:13:06.080Z,102857.44
2019-05-13T11:15:40.676Z,102849.18
2019-05-13T11:18:03.715Z,102840.16
2019-05-13T11:20:32.405Z,102848.58
2019-05-13T11:23:01.918Z,102848.87
2019-05-13T11:25:28.867Z,102841.67
2019-05-13T11:27:58.494Z,102841.25
2019-05-13T11:30:26.327Z,102842.86
2019-05-13T11:32:54.368Z,102840.55
2019-05-13T11:35:22.959Z,102837.72
2019-05-13T11:37:52.174Z,102837.70
2019-05-13T11:40:21.824Z,102827.31
2019-05-13T11:42:48.073Z,102824.16
2019-05-13T11:45:15.158Z,102825.86
2019-05-13T11:47:42.056Z,102824.05
2019-05-13T11:50:11.368Z,102819.69
2019-05-13T11:52:37.646Z,102819.39
2019-05-13T11:55:04.779Z,102807.85
2019-05-13T11:57:31.716Z,102808.16
2019-05-13T11:59:58.519Z,102795.27
2019-05-13T12:02:25.922Z,102796.00
2019-05-13T12:04:53.743Z,102802.25
2019-05-13T12:07:23.169Z,102808.02
2019-05-13T12:09:51.807Z,102814.49
2019-05-13T12:12:18.759Z,102812.53
2019-05-13T12:15:17.751Z,102812.64
2019-05-13T12:17:14.432Z,102816.60
2019-05-13T12:19:42.697Z,102817.41
2019-05-13T12:22:12.944Z,102813.34
2019-05-13T12:24:38.032Z,102813.02
2019-05-13T12:27:05.339Z,102800.80
2019-05-13T12:29:32.454Z,102816.92
2019-05-13T12:32:02.965Z,102811.41
2019-05-13T12:34:28.605Z,102815.03
2019-05-13T12:36:56.050Z,102806.51
2019-05-13T12:41:53.915Z,102791.97
2019-05-13T12:44:22.813Z,102802.84
2019-05-13T12:46:54.084Z,102804.07
2019-05-13T12:49:22.072Z,102795.36
2019-05-13T12:51:51.736Z,102801.34
2019-05-13T12:54:19.573Z,102800.56
2019-05-13T12:56:46.920Z,102793.78
2019-05-13T12:59:15.428Z,102800.83
2019-05-13T13:01:43.209Z,102793.75
2019-05-13T13:04:12.359Z,102805.89
2019-05-13T13:06:41.679Z,102800.13
2019-05-13T13:09:07.336Z,102804.79
2019-05-13T13:11:33.949Z,102795.61
2019-05-13T13:14:05.421Z,102798.63
2019-05-13T13:16:34.222Z,102789.72
2019-05-13T13:18:58.351Z,102792.36
2019-05-13T13:23:55.243Z,102795.61
2019-05-13T13:26:22.066Z,102803.52
2019-05-13T13:28:49.098Z,102807.16
2019-05-13T13:31:16.045Z,102805.42
2019-05-13T13:33:44.599Z,102792.68
2019-05-13T13:36:15.453Z,102798.42
2019-05-13T13:38:43.830Z,102802.14
2019-05-13T13:41:08.973Z,102811.20
2019-05-13T13:43:37.524Z,102817.80
2019-05-13T13:46:11.698Z,102802.17
2019-05-13T13:48:33.392Z,102809.45
2019-05-13T13:51:04.005Z,102806.05
2019-05-13T13:53:29.152Z,102806.64
2019-05-13T13:55:56.338Z,102805.52
2019-05-13T13:58:25.387Z,102804.33
2019-05-13T14:01:05.012Z,102798.20
2019-05-13T14:03:20.887Z,102797.17
2019-05-13T14:05:47.792Z,102792.89
2019-05-13T14:07:13.219Z,102798.30
2019-05-13T14:07:13.373Z,102798.55
2019-05-13T14:08:14.705Z,102798.29
2019-05-13T14:10:42.057Z,102784.26
2019-05-13T14:13:09.385Z,102794.66
2019-05-13T14:15:36.232Z,102792.58
2019-05-13T14:18:03.348Z,102798.09
2019-05-13T14:20:32.573Z,102796.25
2019-05-13T14:22:58.875Z,102794.55
2019-05-13T14:25:26.144Z,102795.44
2019-05-13T14:27:53.279Z,102792.72
2019-05-13T14:30:21.458Z,102796.48
2019-05-13T14:32:51.700Z,102790.86
2019-05-13T14:35:17.599Z,102790.25
2019-05-13T14:37:45.285Z,102794.95
2019-05-13T14:40:13.241Z,102787.95
2019-05-13T14:42:42.466Z,102795.55
2019-05-13T14:45:08.890Z,102799.05
2019-05-13T14:47:35.671Z,102792.74
2019-05-13T14:50:03.202Z,102789.20
2019-05-13T14:52:32.231Z,102788.80
2019-05-13T14:54:58.409Z,102784.62
2019-05-13T14:57:25.012Z,102790.62
2019-05-13T14:59:51.701Z,102789.77
2019-05-13T15:02:18.312Z,102793.34
2019-05-13T15:04:45.268Z,102790.70
2019-05-13T15:07:12.421Z,102787.81
2019-05-13T15:09:39.095Z,102789.68
2019-05-13T15:12:05.725Z,102788.27
2019-05-13T15:14:32.721Z,102790.50
2019-05-13T15:17:04.086Z,102792.16
2019-05-13T15:19:31.563Z,102793.50
2019-05-13T15:21:57.858Z,102791.76
2019-05-13T15:24:26.056Z,102792.22
2019-05-13T15:26:52.845Z,102788.73
2019-05-13T15:29:22.110Z,102782.70
2019-05-13T15:31:48.169Z,102784.83
2019-05-13T15:34:15.523Z,102787.02
2019-05-13T15:36:42.324Z,102781.73
2019-05-13T15:39:09.577Z,102781.86
2019-05-13T15:41:37.755Z,102786.40
2019-05-13T15:44:05.278Z,102781.77
2019-05-13T15:46:32.385Z,102782.98
2019-05-13T15:49:01.086Z,102783.86
2019-05-13T15:51:27.941Z,102790.70
2019-05-13T15:53:57.236Z,102789.14
2019-05-13T15:56:23.436Z,102785.70
2019-05-13T15:58:53.048Z,102791.66
2019-05-13T16:01:19.169Z,102785.94
2019-05-13T16:03:46.182Z,102793.22
2019-05-13T16:06:13.128Z,102787.20
2019-05-13T16:08:43.126Z,102791.63
2019-05-13T16:11:08.452Z,102790.83
2019-05-13T16:13:35.432Z,102794.47
2019-05-13T16:16:02.620Z,102791.92
2019-05-13T16:18:31.457Z,102795.04
2019-05-13T16:20:57.929Z,102794.39
2019-05-13T16:23:25.230Z,102797.68
2019-05-13T16:25:52.169Z,102795.91
2019-05-13T16:28:19.021Z,102791.39
2019-05-13T16:30:45.879Z,102797.01
2019-05-13T16:33:12.955Z,102801.50
2019-05-13T16:35:42.254Z,102791.88
2019-05-13T16:38:08.596Z,102788.45
2019-05-13T16:40:36.832Z,102794.81
2019-05-13T16:43:05.852Z,102798.51
2019-05-13T16:45:32.759Z,102803.10
2019-05-13T16:48:03.829Z,102796.70
2019-05-13T16:50:28.252Z,102794.31
2019-05-13T16:52:55.276Z,102802.95
2019-05-13T16:55:22.143Z,102800.88
2019-05-13T16:57:51.184Z,102801.24
2019-05-13T17:00:17.633Z,102801.95
2019-05-13T17:02:44.477Z,102798.61
2019-05-13T17:05:12.253Z,102806.46
2019-05-13T17:07:42.106Z,102799.58
2019-05-13T17:10:12.313Z,102805.93
2019-05-13T17:12:38.677Z,102799.19
2019-05-13T17:15:05.976Z,102809.58
2019-05-13T17:17:34.027Z,102807.02
2019-05-13T17:20:02.481Z,102807.25
2019-05-13T17:22:31.674Z,102812.61
2019-05-13T17:24:58.627Z,102812.55
2019-05-13T17:27:25.622Z,102811.39
2019-05-13T17:29:52.938Z,102813.63
2019-05-13T17:32:22.189Z,102810.39
2019-05-13T17:34:51.425Z,102809.56
2019-05-13T17:37:18.283Z,102811.69
2019-05-13T17:39:45.256Z,102814.73
2019-05-13T17:42:12.448Z,102809.44
2019-05-13T17:44:39.433Z,102809.77
2019-05-13T17:47:06.303Z,102813.33
2019-05-13T17:49:33.348Z,102805.20
2019-05-13T17:52:02.144Z,102800.73
2019-05-13T17:54:28.977Z,102803.66
2019-05-13T17:56:55.695Z,102804.89
2019-05-13T17:59:22.541Z,102811.98
2019-05-13T18:01:51.540Z,102810.89
2019-05-13T18:04:18.150Z,102818.42
2019-05-13T18:06:45.110Z,102813.95
2019-05-13T18:09:12.269Z,102824.66
2019-05-13T18:11:41.558Z,102825.14
2019-05-13T18:14:08.155Z,102825.91
2019-05-13T18:16:35.153Z,102826.33
2019-05-13T18:19:01.995Z,102830.45
2019-05-13T18:21:28.815Z,102831.45
2019-05-13T18:23:55.716Z,102829.90
2019-05-13T18:26:22.788Z,102832.70
2019-05-13T18:28:51.472Z,102831.45
2019-05-13T18:31:18.567Z,102834.41
2019-05-13T18:33:45.432Z,102835.06
2019-05-13T18:36:12.386Z,102841.47
2019-05-13T18:38:41.705Z,102841.88
2019-05-13T18:41:08.292Z,102836.89
2019-05-13T18:43:35.340Z,102838.84
2019-05-13T18:46:02.398Z,102835.65
2019-05-13T18:48:29.156Z,102829.55
2019-05-13T18:50:56.269Z,102835.61
2019-05-13T18:53:23.419Z,102840.98
2019-05-13T18:55:52.214Z,102836.55
2019-05-13T18:58:18.701Z,102838.28
2019-05-13T19:00:46.027Z,102843.64
2019-05-13T19:03:12.771Z,102845.97
2019-05-13T19:05:42.060Z,102838.09
2019-05-13T19:08:09.421Z,102850.31
2019-05-13T19:10:37.487Z,102847.69
2019-05-13T19:13:04.571Z,102843.84
2019-05-13T19:15:31.961Z,102843.84
2019-05-13T19:17:59.150Z,102844.37
2019-05-13T19:20:27.649Z,102841.03
2019-05-13T19:22:54.752Z,102841.00
2019-05-13T19:25:21.772Z,102841.05
2019-05-13T19:27:51.570Z,102830.58
2019-05-13T19:30:18.016Z,102836.41
2019-05-13T19:32:44.905Z,102835.09
2019-05-13T19:35:12.017Z,102834.49
2019-05-13T19:37:38.962Z,102831.72
2019-05-13T19:40:05.850Z,102839.23
2019-05-13T19:42:34.331Z,102830.40
2019-05-13T19:45:01.908Z,102836.11
2019-05-13T19:47:29.415Z,102828.52
2019-05-13T19:49:56.783Z,102830.59
2019-05-13T19:52:23.854Z,102829.25
2019-05-13T19:54:51.412Z,102836.31
2019-05-13T19:57:18.363Z,102840.15
2019-05-13T19:59:45.411Z,102833.05
2019-05-13T20:02:12.518Z,102839.92
2019-05-13T20:04:41.319Z,102838.98
2019-05-13T20:07:11.609Z,102829.44
2019-05-13T20:09:38.018Z,102832.30
2019-05-13T20:12:05.089Z,102834.48
2019-05-13T20:14:32.119Z,102832.75
2019-05-13T20:17:01.460Z,102830.52
2019-05-13T20:19:27.893Z,102828.83
2019-05-13T20:21:55.197Z,102826.05
2019-05-13T20:24:22.141Z,102819.44
2019-05-13T20:26:52.174Z,102824.74
2019-05-13T20:29:18.890Z,102815.95
2019-05-13T20:31:45.728Z,102821.92
2019-05-13T20:34:12.662Z,102821.29
2019-05-13T20:36:42.047Z,102820.39
2019-05-13T20:39:08.590Z,102814.38
2019-05-13T20:41:35.459Z,102818.39
2019-05-13T20:44:03.345Z,102816.25
2019-05-13T20:46:32.530Z,102814.98
2019-05-13T20:48:58.972Z,102816.16
2019-05-13T20:51:25.884Z,102815.27
2019-05-13T20:53:52.670Z,102813.61
2019-05-13T20:56:21.448Z,102817.38
2019-05-13T20:58:48.702Z,102815.81
2019-05-13T21:01:15.582Z,102819.16
2019-05-13T21:03:42.809Z,102817.62
2019-05-13T21:06:11.706Z,102821.73
2019-05-13T21:08:41.353Z,102825.80
2019-05-13T21:11:07.419Z,102819.19
2019-05-13T21:13:34.370Z,102823.91
2019-05-13T21:16:02.359Z,102827.64
2019-05-13T21:18:31.620Z,102823.48
2019-05-13T21:20:58.310Z,102821.34
2019-05-13T21:23:25.461Z,102822.58
2019-05-13T21:25:55.338Z,102824.80
2019-05-13T21:28:22.603Z,102817.73
2019-05-13T21:30:51.376Z,102812.20
2019-05-13T21:33:21.940Z,102813.57
2019-05-13T21:35:50.960Z,102812.53
2019-05-13T21:38:17.329Z,102815.79
2019-05-13T21:40:44.357Z,102812.79
2019-05-13T21:43:11.857Z,102813.73
2019-05-13T21:45:38.995Z,102811.22
2019-05-13T21:48:06.762Z,102810.73
2019-05-13T21:50:37.210Z,102812.34
2019-05-13T21:53:02.598Z,102817.44
2019-05-13T21:55:29.567Z,102811.45
2019-05-13T21:57:56.501Z,102802.62
2019-05-13T22:00:25.519Z,102813.87
2019-05-13T22:02:54.273Z,102808.57
2019-05-13T22:05:22.225Z,102811.48
2019-05-13T22:07:49.013Z,102810.58
2019-05-13T22:10:15.782Z,102812.25
2019-05-13T22:12:42.877Z,102804.95
2019-05-13T22:15:09.870Z,102807.75
2019-05-13T22:17:37.078Z,102811.84
2019-05-13T22:20:04.763Z,102810.13
2019-05-13T22:22:32.160Z,102813.79
2019-05-13T22:25:01.787Z,102811.14
2019-05-13T22:27:29.937Z,102811.05
2019-05-13T22:29:56.944Z,102812.22
2019-05-13T22:32:24.092Z,102816.52
2019-05-13T22:34:51.188Z,102818.56
2019-05-13T22:37:18.521Z,102817.30
2019-05-13T22:39:46.181Z,102823.92
2019-05-13T22:42:13.534Z,102820.77
2019-05-13T22:44:41.707Z,102816.63
2019-05-13T22:47:13.022Z,102820.80
2019-05-13T22:49:39.782Z,102822.73
2019-05-13T22:52:06.595Z,102818.67
2019-05-13T22:54:33.503Z,102814.32
2019-05-13T22:57:00.492Z,102817.08
2019-05-13T22:59:27.036Z,102813.77
2019-05-13T23:01:53.876Z,102815.66
2019-05-13T23:04:20.581Z,102819.55
2019-05-13T23:06:47.556Z,102811.23
2019-05-13T23:09:14.645Z,102808.73
2019-05-13T23:11:41.848Z,102816.50
2019-05-13T23:14:10.836Z,102806.27
2019-05-13T23:16:37.621Z,102810.39
2019-05-13T23:19:04.569Z,102807.37
2019-05-13T23:21:31.391Z,102805.96
2019-05-13T23:23:58.239Z,102803.83
2019-05-13T23:26:25.298Z,102804.92
2019-05-13T23:28:52.327Z,102805.05
2019-05-13T23:31:19.100Z,102797.81
2019-05-13T23:33:46.052Z,102803.70
2019-05-13T23:36:13.504Z,102801.39
2019-05-13T23:38:41.346Z,102806.30
2019-05-13T23:41:08.440Z,102809.33
2019-05-13T23:43:35.320Z,102804.36
2019-05-13T23:46:01.823Z,102803.36
2019-05-13T23:48:28.581Z,102797.94
2019-05-13T23:50:55.555Z,102802.65
2019-05-13T23:53:22.326Z,102798.17
2019-05-13T23:55:49.139Z,102797.81
2019-05-13T23:58:15.872Z,102792.20
